Time;durP1;ratioP1;P1;durP2;ratioP2;P2;SDS_P1;SDS_P2;PMS_P1;PMS_P2;Temp;Humidity;BMP_temperature;BMP_pressure;BME280_temperature;BME280_humidity;BME280_pressure;Samples;Min_cycle;Max_cycle;Signal;HPM_P1;HPM_P2
2023/07/02 00:01:53;;;;;;;1.17;0.80;;;17.20;99.90;;;;;;5073820;28;20453;-85
2023/07/02 00:04:20;;;;;;;1.30;1.07;;;17.10;99.90;;;;;;5073766;28;20445;-85
2023/07/02 00:06:48;;;;;;;0.60;0.60;;;17.10;99.90;;;;;;5073699;28;20456;-85
2023/07/02 00:09:15;;;;;;;1.30;0.83;;;17.20;99.90;;;;;;5073498;28;20559;-85
2023/07/02 00:11:45;;;;;;;2.73;1.07;;;17.20;99.90;;;;;;5073483;28;20936;-85
2023/07/02 00:14:13;;;;;;;3.00;1.10;;;17.20;99.90;;;;;;5073890;28;20443;-85
2023/07/02 00:16:43;;;;;;;1.37;1.17;;;17.20;99.90;;;;;;5072767;28;20849;-85
2023/07/02 00:19:11;;;;;;;1.50;0.90;;;17.20;99.90;;;;;;5073630;28;20457;-85
2023/07/02 00:21:39;;;;;;;1.30;1.20;;;17.20;99.90;;;;;;5073372;28;20440;-86
2023/07/02 00:24:07;;;;;;;1.07;1.00;;;17.20;99.90;;;;;;5073521;28;20449;-85
2023/07/02 00:26:33;;;;;;;1.10;0.87;;;17.10;99.90;;;;;;5073676;28;20445;-85
2023/07/02 00:29:00;;;;;;;0.73;0.73;;;17.10;99.90;;;;;;5073148;28;20500;-85
2023/07/02 00:31:27;;;;;;;1.00;0.83;;;17.10;99.90;;;;;;5073413;28;20447;-85
2023/07/02 00:33:53;;;;;;;2.10;1.00;;;17.10;99.90;;;;;;5073373;28;20456;-85
2023/07/02 00:36:21;;;;;;;0.97;0.90;;;17.20;99.90;;;;;;5073454;28;20440;-85
2023/07/02 00:38:49;;;;;;;1.10;0.73;;;17.20;99.90;;;;;;5073113;28;20992;-85
2023/07/02 00:41:16;;;;;;;1.57;1.47;;;17.20;99.90;;;;;;5073311;28;20444;-85
2023/07/02 00:43:44;;;;;;;1.70;0.80;;;17.20;99.90;;;;;;5073009;28;20971;-85
2023/07/02 00:46:17;;;;;;;1.07;0.93;;;17.20;99.90;;;;;;5072976;28;20445;-86
2023/07/02 00:48:44;;;;;;;1.33;1.23;;;17.10;99.90;;;;;;5072839;28;20530;-85
2023/07/02 00:51:13;;;;;;;0.80;0.80;;;17.20;99.90;;;;;;5073250;28;20460;-85
2023/07/02 00:53:42;;;;;;;0.87;0.87;;;17.20;99.90;;;;;;5072916;28;20849;-85
2023/07/02 00:56:08;;;;;;;1.10;1.00;;;17.20;99.90;;;;;;5073399;28;20453;-86
2023/07/02 00:58:39;;;;;;;1.03;1.03;;;17.20;99.90;;;;;;5073781;28;20812;-85
2023/07/02 01:01:06;;;;;;;0.80;0.80;;;17.20;99.90;;;;;;5073191;28;20437;-85
2023/07/02 01:03:37;;;;;;;1.00;1.00;;;17.20;99.90;;;;;;5073139;28;20801;-85
2023/07/02 01:06:04;;;;;;;0.70;0.70;;;17.20;99.90;;;;;;5073127;28;20494;-85
2023/07/02 01:08:30;;;;;;;1.23;0.83;;;17.20;99.90;;;;;;5072872;28;20464;-85
2023/07/02 01:11:00;;;;;;;2.10;0.97;;;17.20;99.90;;;;;;5072707;28;20473;-85
2023/07/02 01:13:27;;;;;;;3.43;0.93;;;17.20;99.90;;;;;;5073034;28;20465;-85
2023/07/02 01:15:54;;;;;;;0.90;0.80;;;17.10;99.90;;;;;;5072650;28;20864;-85
2023/07/02 01:18:22;;;;;;;1.07;0.97;;;17.10;99.90;;;;;;5072602;28;20980;-85
2023/07/02 01:20:50;;;;;;;1.83;1.30;;;17.00;99.90;;;;;;5072659;28;20952;-85
2023/07/02 01:23:17;;;;;;;1.27;1.17;;;17.00;99.90;;;;;;5072928;28;20451;-86
2023/07/02 01:25:45;;;;;;;1.27;1.10;;;17.00;99.90;;;;;;5072914;28;20441;-85
2023/07/02 01:28:13;;;;;;;0.70;0.70;;;17.00;99.90;;;;;;5074417;28;20480;-85
2023/07/02 01:30:40;;;;;;;1.00;0.80;;;16.90;99.90;;;;;;5076579;28;20490;-85
2023/07/02 01:33:07;;;;;;;0.73;0.73;;;16.90;99.90;;;;;;5076565;28;20795;-85
2023/07/02 01:35:33;;;;;;;1.33;0.97;;;16.80;99.90;;;;;;5076548;28;20441;-86
2023/07/02 01:38:01;;;;;;;1.77;1.30;;;16.80;99.90;;;;;;5076438;28;20524;-85
2023/07/02 01:40:28;;;;;;;2.00;0.90;;;16.70;99.90;;;;;;5076197;28;20813;-86
2023/07/02 01:42:55;;;;;;;1.80;1.30;;;16.70;99.90;;;;;;5076488;28;20445;-85
2023/07/02 01:45:22;;;;;;;0.93;0.83;;;16.60;99.90;;;;;;5076369;28;20444;-86
2023/07/02 01:47:49;;;;;;;0.87;0.87;;;16.60;99.90;;;;;;5076284;28;20455;-85
2023/07/02 01:50:15;;;;;;;1.83;0.87;;;16.60;99.90;;;;;;5076142;28;20834;-85
2023/07/02 01:52:42;;;;;;;3.00;1.07;;;16.50;99.90;;;;;;5076544;28;20425;-85
2023/07/02 01:55:10;;;;;;;1.10;1.00;;;16.50;99.90;;;;;;5075894;28;20445;-85
2023/07/02 01:57:37;;;;;;;0.80;0.80;;;16.50;99.90;;;;;;5075901;28;20802;-85
2023/07/02 02:00:07;;;;;;;4.10;0.97;;;16.50;99.90;;;;;;5076069;28;20472;-85
2023/07/02 02:02:33;;;;;;;1.57;1.30;;;16.50;99.90;;;;;;5076120;28;20474;-85
2023/07/02 02:05:00;;;;;;;2.50;0.80;;;16.50;99.90;;;;;;5075712;28;20449;-86
2023/07/02 02:07:28;;;;;;;1.30;1.20;;;16.60;99.90;;;;;;5075954;28;20460;-85
2023/07/02 02:09:54;;;;;;;1.10;0.90;;;16.60;99.90;;;;;;5075429;28;20880;-86
2023/07/02 02:12:23;;;;;;;2.90;0.97;;;16.60;99.90;;;;;;5075895;28;20451;-85
2023/07/02 02:14:49;;;;;;;2.20;0.70;;;16.60;99.90;;;;;;5076101;28;20818;-85
2023/07/02 02:17:16;;;;;;;1.70;0.93;;;16.70;99.90;;;;;;5075869;28;20452;-85
2023/07/02 02:19:43;;;;;;;1.03;0.93;;;16.70;99.90;;;;;;5075690;28;20465;-86
2023/07/02 02:22:09;;;;;;;1.57;1.43;;;16.70;99.90;;;;;;5075765;28;20527;-85
2023/07/02 02:24:36;;;;;;;0.73;0.60;;;16.80;99.90;;;;;;5075648;28;20819;-85
2023/07/02 02:27:03;;;;;;;0.87;0.70;;;16.80;99.90;;;;;;5075687;28;20472;-86
2023/07/02 02:29:32;;;;;;;0.90;0.90;;;16.80;99.90;;;;;;5075033;28;20496;-85
2023/07/02 02:31:58;;;;;;;1.83;1.00;;;16.90;99.90;;;;;;5075589;28;20817;-86
2023/07/02 02:34:25;;;;;;;1.37;1.27;;;16.90;99.90;;;;;;5075495;28;20459;-85
2023/07/02 02:36:52;;;;;;;1.97;1.10;;;16.90;99.90;;;;;;5075468;28;20445;-85
2023/07/02 02:39:18;;;;;;;1.07;0.93;;;16.90;99.90;;;;;;5074893;28;20472;-85
2023/07/02 02:41:45;;;;;;;1.07;0.87;;;16.90;99.90;;;;;;5075040;28;20825;-85
2023/07/02 02:44:12;;;;;;;1.30;1.10;;;16.90;99.90;;;;;;5075342;28;20460;-86
2023/07/02 02:46:40;;;;;;;0.97;0.67;;;17.00;99.90;;;;;;5075491;28;20445;-85
2023/07/02 02:49:06;;;;;;;0.80;0.80;;;17.00;99.90;;;;;;5075070;28;20480;-85
2023/07/02 02:51:33;;;;;;;3.47;0.90;;;17.00;99.90;;;;;;5075114;28;20484;-85
2023/07/02 02:54:00;;;;;;;0.63;0.60;;;16.90;99.90;;;;;;5074784;28;20937;-84
2023/07/02 02:56:27;;;;;;;0.80;0.80;;;17.00;99.90;;;;;;5074779;28;20543;-85
2023/07/02 02:58:54;;;;;;;1.93;1.00;;;17.00;99.90;;;;;;5074941;28;20471;-85
2023/07/02 03:01:20;;;;;;;0.87;0.83;;;17.00;99.90;;;;;;5074979;28;20445;-85
2023/07/02 03:03:48;;;;;;;0.93;0.70;;;17.00;99.90;;;;;;5075224;28;20441;-85
2023/07/02 03:06:16;;;;;;;1.43;1.20;;;17.00;99.90;;;;;;5074595;28;20975;-86
2023/07/02 03:08:42;;;;;;;1.10;0.90;;;16.90;99.90;;;;;;5082332;28;20471;-86
2023/07/02 03:11:09;;;;;;;3.13;1.37;;;16.80;99.90;;;;;;5074643;28;20488;-87
2023/07/02 03:13:36;;;;;;;1.23;1.10;;;16.70;99.90;;;;;;5074737;28;20451;-87
2023/07/02 03:16:02;;;;;;;1.00;0.80;;;16.50;99.90;;;;;;5074771;28;20520;-86
2023/07/02 03:18:29;;;;;;;1.70;1.30;;;16.30;99.90;;;;;;5074286;28;20972;-87
2023/07/02 03:20:57;;;;;;;1.27;0.70;;;16.20;99.90;;;;;;5074648;28;20441;-87
2023/07/02 03:23:24;;;;;;;1.20;0.97;;;16.10;99.90;;;;;;5074603;28;20447;-87
2023/07/02 03:25:51;;;;;;;1.17;0.80;;;16.00;99.90;;;;;;5074180;28;20949;-86
2023/07/02 03:28:17;;;;;;;2.73;0.70;;;15.90;99.90;;;;;;5074094;28;20491;-87
2023/07/02 03:30:44;;;;;;;1.07;0.90;;;15.70;99.90;;;;;;5074495;28;20492;-87
2023/07/02 03:33:11;;;;;;;0.90;0.83;;;15.70;99.90;;;;;;5074664;28;20448;-89
2023/07/02 03:35:38;;;;;;;0.80;0.77;;;15.60;99.90;;;;;;5074876;28;20437;-89
2023/07/02 03:38:06;;;;;;;0.90;0.70;;;15.60;99.90;;;;;;5074921;28;20812;-91
2023/07/02 03:40:33;;;;;;;2.80;1.00;;;15.60;99.90;;;;;;5074758;28;20479;-90
2023/07/02 03:43:00;;;;;;;3.00;1.00;;;15.50;99.90;;;;;;5074930;28;20826;-91
2023/07/02 03:45:26;;;;;;;0.77;0.70;;;15.50;99.90;;;;;;5074589;28;20955;-90
2023/07/02 03:47:53;;;;;;;0.93;0.93;;;15.50;99.90;;;;;;5074737;28;20452;-90
2023/07/02 03:50:20;;;;;;;0.73;0.70;;;15.40;99.90;;;;;;5073713;28;20492;-89
2023/07/02 03:52:47;;;;;;;1.07;1.07;;;15.40;99.90;;;;;;5074698;28;20449;-89
2023/07/02 03:55:15;;;;;;;1.10;1.00;;;15.30;99.90;;;;;;5074680;28;20432;-89
2023/07/02 03:57:42;;;;;;;2.63;1.00;;;15.30;99.90;;;;;;5074500;28;20445;-90
2023/07/02 04:00:11;;;;;;;0.63;0.63;;;15.30;99.90;;;;;;5074580;28;20441;-90
2023/07/02 04:02:37;;;;;;;0.90;0.90;;;15.30;99.90;;;;;;5074653;28;20447;-91
2023/07/02 04:05:05;;;;;;;0.93;0.80;;;15.30;99.90;;;;;;5074934;28;20451;-91
2023/07/02 04:07:32;;;;;;;1.30;0.80;;;15.20;99.90;;;;;;5074483;28;20498;-91
2023/07/02 04:09:58;;;;;;;3.00;1.00;;;15.20;99.90;;;;;;5074708;28;20551;-91
2023/07/02 04:12:27;;;;;;;0.80;0.70;;;15.20;99.90;;;;;;5074810;28;20814;-91
2023/07/02 04:14:53;;;;;;;3.90;1.07;;;15.20;99.90;;;;;;5074661;28;20452;-91
2023/07/02 04:17:20;;;;;;;1.33;1.23;;;15.20;99.90;;;;;;5074865;28;20448;-91
2023/07/02 04:19:47;;;;;;;2.87;0.80;;;15.20;99.90;;;;;;5074570;28;20464;-91
2023/07/02 04:22:13;;;;;;;1.63;1.20;;;15.10;99.90;;;;;;5074877;28;20449;-91
2023/07/02 04:24:40;;;;;;;2.57;0.97;;;15.20;99.90;;;;;;5074605;28;20449;-91
2023/07/02 04:27:07;;;;;;;1.40;0.93;;;15.20;99.90;;;;;;5074417;28;20455;-91
2023/07/02 04:29:35;;;;;;;0.80;0.80;;;15.20;99.90;;;;;;5074057;28;20496;-91
2023/07/02 04:32:02;;;;;;;3.70;1.30;;;15.20;99.90;;;;;;5074148;28;21004;-91
2023/07/02 04:34:29;;;;;;;2.57;0.97;;;15.20;99.90;;;;;;5074278;28;20440;-91
2023/07/02 04:36:56;;;;;;;0.60;0.60;;;15.20;99.90;;;;;;5074977;28;20794;-91
2023/07/02 04:39:23;;;;;;;2.50;0.80;;;15.20;99.90;;;;;;5074434;28;20472;-91
2023/07/02 04:41:52;;;;;;;1.30;0.90;;;15.30;99.90;;;;;;5074322;28;20445;-91
2023/07/02 04:44:20;;;;;;;0.90;0.80;;;15.30;99.90;;;;;;5074425;28;20445;-90
2023/07/02 04:46:48;;;;;;;2.07;1.27;;;15.40;99.90;;;;;;5074294;28;20641;-91
2023/07/02 04:49:15;;;;;;;1.33;1.03;;;15.40;99.90;;;;;;5074075;28;20465;-91
2023/07/02 04:51:42;;;;;;;1.37;1.00;;;15.40;99.90;;;;;;5074143;28;20987;-92
2023/07/02 04:54:09;;;;;;;1.30;0.80;;;15.50;99.90;;;;;;5074249;28;20452;-92
2023/07/02 04:56:36;;;;;;;1.20;0.70;;;15.50;99.90;;;;;;5074189;28;20453;-91
2023/07/02 04:59:02;;;;;;;1.53;0.70;;;15.50;99.90;;;;;;5073817;28;20475;-92
2023/07/02 05:01:29;;;;;;;3.27;0.87;;;15.60;99.90;;;;;;5074794;28;20455;-91
2023/07/02 05:03:58;;;;;;;1.43;1.03;;;15.60;99.90;;;;;;5078132;28;20452;-91
2023/07/02 05:06:24;;;;;;;1.23;0.80;;;15.60;99.90;;;;;;5078072;28;20449;-91
2023/07/02 05:08:52;;;;;;;1.67;0.73;;;15.60;99.90;;;;;;5078013;28;20968;-91
2023/07/02 05:11:19;;;;;;;1.03;0.77;;;15.70;99.90;;;;;;5077871;28;20488;-90
2023/07/02 05:13:46;;;;;;;1.83;0.90;;;15.70;99.90;;;;;;5077892;28;20445;-90
2023/07/02 05:16:13;;;;;;;0.90;0.90;;;15.80;99.90;;;;;;5077695;28;20451;-90
2023/07/02 05:18:40;;;;;;;1.00;0.60;;;15.70;99.90;;;;;;5077593;28;20543;-90
2023/07/02 05:21:08;;;;;;;0.80;0.80;;;15.70;99.90;;;;;;5077670;28;20440;-90
2023/07/02 05:23:34;;;;;;;3.13;0.80;;;15.80;99.90;;;;;;5077397;28;20432;-90
2023/07/02 05:26:02;;;;;;;1.37;1.27;;;15.70;99.90;;;;;;5077496;28;20449;-90
2023/07/02 05:28:29;;;;;;;1.27;0.90;;;15.70;99.90;;;;;;5077291;28;20487;-89
2023/07/02 05:30:56;;;;;;;2.57;1.63;;;15.70;99.90;;;;;;5077340;28;20488;-90
2023/07/02 05:33:22;;;;;;;1.07;0.83;;;15.70;99.90;;;;;;5077290;28;20812;-89
2023/07/02 05:35:49;;;;;;;1.87;1.43;;;15.80;99.90;;;;;;5077213;28;20827;-89
2023/07/02 05:38:18;;;;;;;3.73;1.60;;;16.00;99.90;;;;;;5077061;28;20507;-90
2023/07/02 05:40:45;;;;;;;2.07;1.13;;;16.10;99.90;;;;;;5077077;28;20437;-89
2023/07/02 05:43:12;;;;;;;3.13;1.13;;;16.10;99.90;;;;;;5076946;28;20455;-89
2023/07/02 05:45:39;;;;;;;5.17;1.43;;;16.10;99.90;;;;;;5077047;28;20440;-89
2023/07/02 05:48:06;;;;;;;3.43;1.20;;;16.10;99.90;;;;;;5077004;28;20818;-88
2023/07/02 05:50:33;;;;;;;1.90;1.43;;;16.30;99.90;;;;;;5077050;28;20506;-89
2023/07/02 05:52:59;;;;;;;3.13;1.60;;;16.40;99.90;;;;;;5076651;28;20444;-89
2023/07/02 05:55:27;;;;;;;3.20;1.37;;;16.60;99.90;;;;;;5076548;28;20440;-88
2023/07/02 05:57:54;;;;;;;3.50;1.37;;;16.70;99.90;;;;;;5076477;28;20447;-89
2023/07/02 06:00:21;;;;;;;2.63;1.40;;;16.90;99.90;;;;;;5076710;28;20451;-89
2023/07/02 06:02:48;;;;;;;1.60;1.27;;;17.10;99.90;;;;;;5076661;28;20444;-85
2023/07/02 06:05:15;;;;;;;1.67;1.50;;;17.10;99.90;;;;;;5076318;28;20502;-86
2023/07/02 06:07:42;;;;;;;1.00;0.90;;;17.30;99.90;;;;;;5076243;28;20798;-85
2023/07/02 06:10:09;;;;;;;4.47;1.20;;;17.40;99.90;;;;;;5076179;28;20448;-86
2023/07/02 06:12:37;;;;;;;2.20;2.00;;;17.50;99.90;;;;;;5075674;28;20492;-85
2023/07/02 06:15:04;;;;;;;2.20;1.03;;;17.60;99.90;;;;;;5075462;28;20448;-85
2023/07/02 06:17:31;;;;;;;4.43;2.10;;;17.70;99.90;;;;;;5075933;28;20448;-85
2023/07/02 06:19:58;;;;;;;5.70;1.40;;;17.70;99.90;;;;;;5075876;28;20522;-84
2023/07/02 06:22:25;;;;;;;5.23;2.57;;;17.70;99.90;;;;;;5075877;28;20809;-85
2023/07/02 06:24:52;;;;;;;3.97;1.63;;;17.90;99.90;;;;;;5075560;28;20951;-87
2023/07/02 06:27:19;;;;;;;3.47;2.00;;;17.90;99.90;;;;;;5075968;28;20472;-86
2023/07/02 06:29:47;;;;;;;3.40;1.77;;;17.90;99.90;;;;;;5076007;28;20464;-86
2023/07/02 06:32:13;;;;;;;3.23;2.10;;;18.00;99.90;;;;;;5076027;28;20472;-86
2023/07/02 06:34:40;;;;;;;2.20;1.60;;;18.00;99.90;;;;;;5076036;28;20456;-86
2023/07/02 06:37:07;;;;;;;3.73;2.43;;;18.00;99.90;;;;;;5075610;28;20449;-85
2023/07/02 06:39:33;;;;;;;5.17;2.63;;;18.00;99.90;;;;;;5075499;28;20468;-86
2023/07/02 06:42:00;;;;;;;5.93;2.70;;;18.00;99.90;;;;;;5075195;28;20945;-86
2023/07/02 06:44:27;;;;;;;5.17;2.70;;;18.00;99.90;;;;;;5075865;28;20452;-86
2023/07/02 06:46:55;;;;;;;4.00;2.83;;;18.00;99.90;;;;;;5075260;28;20456;-86
2023/07/02 06:49:22;;;;;;;7.83;2.40;;;18.00;99.90;;;;;;5075462;28;20460;-86
2023/07/02 06:51:49;;;;;;;4.47;2.53;;;18.10;99.90;;;;;;5075396;28;20527;-85
2023/07/02 06:54:15;;;;;;;5.23;3.00;;;18.20;99.90;;;;;;5075229;28;20452;-86
2023/07/02 06:56:42;;;;;;;7.40;3.43;;;18.20;99.90;;;;;;5075192;28;20449;-86
2023/07/02 06:59:09;;;;;;;8.07;2.60;;;18.30;99.90;;;;;;5074992;28;20472;-85
2023/07/02 07:01:36;;;;;;;6.53;2.50;;;18.40;99.90;;;;;;5075109;28;20445;-85
2023/07/02 07:04:04;;;;;;;5.33;2.80;;;18.60;99.90;;;;;;5075097;28;20536;-85
2023/07/02 07:06:31;;;;;;;6.30;3.00;;;18.70;99.90;;;;;;5075367;28;20783;-85
2023/07/02 07:08:58;;;;;;;12.20;3.80;;;18.60;99.90;;;;;;5074752;28;20465;-85
2023/07/02 07:11:24;;;;;;;10.17;3.23;;;18.60;99.90;;;;;;5074685;28;20481;-85
2023/07/02 07:13:51;;;;;;;6.10;3.13;;;18.70;99.90;;;;;;5074913;28;20439;-85
2023/07/02 07:16:18;;;;;;;5.70;3.33;;;18.70;99.90;;;;;;5074512;28;20983;-86
2023/07/02 07:18:45;;;;;;;9.07;2.77;;;18.80;99.90;;;;;;5074945;28;20464;-85
2023/07/02 07:21:13;;;;;;;8.20;3.97;;;18.80;99.90;;;;;;5074676;28;20441;-85
2023/07/02 07:23:40;;;;;;;8.90;3.50;;;18.90;99.90;;;;;;5074728;28;20456;-85
2023/07/02 07:26:07;;;;;;;6.30;3.77;;;19.10;99.90;;;;;;5074641;28;20817;-86
2023/07/02 07:28:34;;;;;;;4.57;3.10;;;19.10;99.90;;;;;;5074155;28;20488;-85
2023/07/02 07:31:01;;;;;;;7.43;3.30;;;19.10;99.90;;;;;;5074756;28;20810;-85
2023/07/02 07:33:27;;;;;;;8.90;4.87;;;19.20;99.90;;;;;;5074484;28;20455;-85
2023/07/02 07:35:54;;;;;;;8.03;3.50;;;19.30;99.90;;;;;;5074645;28;20457;-85
2023/07/02 07:38:22;;;;;;;8.87;3.90;;;19.50;99.90;;;;;;5073992;28;20995;-86
2023/07/02 07:40:49;;;;;;;9.47;4.27;;;19.80;99.90;;;;;;5074129;28;20816;-85
2023/07/02 07:43:16;;;;;;;7.00;3.47;;;20.00;99.90;;;;;;5074426;28;20445;-86
2023/07/02 07:45:42;;;;;;;6.53;3.43;;;20.30;99.90;;;;;;5074315;28;20452;-85
2023/07/02 07:48:09;;;;;;;10.30;4.10;;;20.60;99.90;;;;;;5073718;28;20998;-85
2023/07/02 07:50:36;;;;;;;9.30;3.83;;;20.70;99.90;;;;;;5074016;28;20451;-85
2023/07/02 07:53:03;;;;;;;9.67;3.80;;;20.80;99.90;;;;;;5073863;28;20562;-85
2023/07/02 07:55:31;;;;;;;8.43;4.63;;;21.10;99.90;;;;;;5073555;28;20452;-85
2023/07/02 07:57:57;;;;;;;7.70;3.27;;;21.30;99.90;;;;;;5073759;28;20459;-85
2023/07/02 08:00:25;;;;;;;6.97;4.10;;;21.40;99.90;;;;;;5073818;28;20455;-84
2023/07/02 08:02:55;;;;;;;7.57;4.20;;;21.30;99.90;;;;;;5073576;28;20460;-84
2023/07/02 08:05:22;;;;;;;8.90;4.20;;;21.30;99.90;;;;;;5073572;28;20448;-84
2023/07/02 08:07:49;;;;;;;11.33;4.40;;;21.50;99.90;;;;;;5073598;28;20452;-84
2023/07/02 08:10:16;;;;;;;8.80;3.73;;;21.80;99.90;;;;;;5073934;28;20448;-84
2023/07/02 08:12:45;;;;;;;13.20;5.43;;;22.00;99.90;;;;;;5073476;28;20525;-84
2023/07/02 08:15:12;;;;;;;8.53;3.27;;;22.30;99.90;;;;;;5073701;28;20880;-85
2023/07/02 08:17:39;;;;;;;8.30;4.20;;;22.40;99.90;;;;;;5073495;28;20444;-84
2023/07/02 08:20:09;;;;;;;10.90;4.23;;;22.30;99.90;;;;;;5073505;28;20471;-84
2023/07/02 08:22:36;;;;;;;7.70;3.63;;;22.30;99.90;;;;;;5073592;28;20437;-84
2023/07/02 08:25:03;;;;;;;7.37;4.20;;;22.60;99.90;;;;;;5073576;28;20202;-84
2023/07/02 08:27:30;;;;;;;8.87;3.47;;;22.50;99.90;;;;;;5073232;28;20296;-83
2023/07/02 08:29:58;;;;;;;11.80;4.40;;;22.30;99.90;;;;;;5073531;28;20712;-84
2023/07/02 08:32:25;;;;;;;7.50;3.20;;;22.30;99.90;;;;;;5073676;28;20225;-84
2023/07/02 08:34:52;;;;;;;8.47;4.27;;;22.20;99.90;;;;;;5073738;28;20523;-85
2023/07/02 08:37:19;;;;;;;6.57;3.53;;;22.30;99.90;;;;;;5073027;28;20241;-85
2023/07/02 08:39:46;;;;;;;7.53;3.63;;;22.50;99.90;;;;;;5073322;28;20565;-85
2023/07/02 08:42:13;;;;;;;10.50;3.78;;;22.70;99.90;;;;;;5073380;28;20198;-84
2023/07/02 08:44:40;;;;;;;5.82;3.60;;;23.00;99.90;;;;;;5073420;28;20202;-85
2023/07/02 08:47:09;;;;;;;9.52;3.42;;;23.20;99.90;;;;;;5073357;28;20190;-85
2023/07/02 08:49:35;;;;;;;5.90;3.10;;;23.20;99.90;;;;;;5072857;28;20635;-84
2023/07/02 08:52:03;;;;;;;13.30;4.00;;;23.30;99.90;;;;;;5073122;28;20210;-84
2023/07/02 08:54:29;;;;;;;5.43;3.38;;;23.20;99.90;;;;;;5073289;28;20633;-84
2023/07/02 08:56:57;;;;;;;7.13;3.63;;;23.10;99.90;;;;;;5073213;28;20201;-84
2023/07/02 08:59:24;;;;;;;5.00;3.42;;;23.10;99.90;;;;;;5073145;28;20280;-84
2023/07/02 09:01:52;;;;;;;6.87;3.17;;;23.20;99.90;;;;;;5073149;28;20198;-84
2023/07/02 09:04:23;;;;;;;10.68;4.03;;;23.20;99.90;;;;;;5072873;28;20209;-84
2023/07/02 09:06:51;;;;;;;7.00;3.63;;;23.00;99.90;;;;;;5073132;28;20186;-84
2023/07/02 09:09:19;;;;;;;4.27;3.13;;;23.20;99.90;;;;;;5072852;28;20210;-84
2023/07/02 09:11:49;;;;;;;12.57;3.75;;;23.30;99.90;;;;;;5073039;28;20224;-84
2023/07/02 09:14:26;;;;;;;7.43;3.60;;;23.40;99.90;;;;;;5072865;28;20676;-84
2023/07/02 09:17:03;;;;;;;6.17;3.30;;;23.50;99.90;;;;;;5073081;28;20190;-83
2023/07/02 09:19:32;;;;;;;5.20;3.50;;;23.50;99.90;;;;;;5073077;28;20222;-83
2023/07/02 09:22:00;;;;;;;9.20;4.00;;;23.50;99.90;;;;;;5072966;28;20198;-84
2023/07/02 09:24:28;;;;;;;6.00;3.47;;;23.30;99.90;;;;;;5072980;28;20202;-84
2023/07/02 09:26:56;;;;;;;6.70;3.50;;;23.30;99.90;;;;;;5072893;28;20224;-84
2023/07/02 09:29:25;;;;;;;6.20;3.33;;;23.30;99.90;;;;;;5072685;28;20241;-84
2023/07/02 09:31:52;;;;;;;5.70;3.63;;;23.40;99.90;;;;;;5072774;28;20228;-84
2023/07/02 09:34:19;;;;;;;8.00;3.97;;;23.50;99.90;;;;;;5073668;28;20205;-85
2023/07/02 09:36:47;;;;;;;8.07;4.03;;;23.40;99.90;;;;;;5072503;28;20592;-84
2023/07/02 09:39:15;;;;;;;5.67;4.07;;;23.20;99.90;;;;;;5072757;28;20678;-84
2023/07/02 09:41:42;;;;;;;9.03;3.50;;;22.80;99.90;;;;;;5072821;28;20198;-84
2023/07/02 09:44:10;;;;;;;6.47;4.10;;;22.60;99.90;;;;;;5072759;28;20444;-84
2023/07/02 09:46:39;;;;;;;10.17;4.97;;;22.60;99.90;;;;;;5072783;28;20495;-85
2023/07/02 09:49:11;;;;;;;10.20;5.20;;;22.70;99.90;;;;;;5074361;28;20226;-84
2023/07/02 09:51:38;;;;;;;7.13;5.47;;;22.90;99.90;;;;;;5076256;28;20435;-84
2023/07/02 09:54:06;;;;;;;9.23;4.83;;;23.00;99.90;;;;;;5076036;28;20947;-84
2023/07/02 09:56:33;;;;;;;7.50;4.33;;;23.00;99.90;;;;;;5076486;28;20440;-84
2023/07/02 09:59:00;;;;;;;8.03;4.20;;;23.20;99.90;;;;;;5076158;28;20229;-84
2023/07/02 10:01:27;;;;;;;6.07;4.60;;;23.30;99.90;;;;;;5076126;28;20816;-82
2023/07/02 10:03:54;;;;;;;8.33;4.80;;;23.30;99.90;;;;;;5075819;28;20198;-86
2023/07/02 10:06:20;;;;;;;7.90;4.23;;;23.20;99.90;;;;;;5075946;28;20205;-84
2023/07/02 10:08:54;;;;;;;9.27;4.10;;;23.30;99.90;;;;;;5075709;28;20732;-84
2023/07/02 10:11:34;;;;;;;7.57;4.47;;;23.40;99.90;;;;;;5076084;28;20432;-83
2023/07/02 10:14:01;;;;;;;8.43;4.70;;;23.60;99.90;;;;;;5075713;28;20190;-84
2023/07/02 10:16:31;;;;;;;6.30;3.03;;;23.70;99.90;;;;;;5076622;28;20661;-85
2023/07/02 10:19:09;;;;;;;8.87;4.27;;;23.60;99.90;;;;;;5075734;28;20228;-84
2023/07/02 10:21:35;;;;;;;5.90;3.87;;;23.70;99.90;;;;;;5075535;28;20194;-84
2023/07/02 10:24:10;;;;;;;13.97;4.70;;;23.70;99.90;;;;;;5075803;28;20202;-84
2023/07/02 10:26:39;;;;;;;7.57;3.90;;;23.70;99.90;;;;;;5075773;28;20186;-84
2023/07/02 10:29:07;;;;;;;16.30;4.20;;;23.80;99.90;;;;;;5075301;28;20245;-84
2023/07/02 10:31:34;;;;;;;7.83;4.97;;;23.90;99.90;;;;;;5075785;28;20190;-84
2023/07/02 10:34:00;;;;;;;6.67;4.20;;;24.00;99.90;;;;;;5075470;28;20236;-83
2023/07/02 10:36:27;;;;;;;10.47;4.37;;;24.10;99.90;;;;;;5075501;28;20209;-84
2023/07/02 10:38:54;;;;;;;8.50;4.20;;;24.10;99.90;;;;;;5075414;28;20222;-84
2023/07/02 10:41:25;;;;;;;9.10;4.93;;;24.10;99.70;;;;;;5075846;28;20206;-85
2023/07/02 10:43:54;;;;;;;7.75;3.60;;;24.30;99.20;;;;;;5075366;28;20220;-84
2023/07/02 10:46:21;;;;;;;8.07;3.88;;;24.10;97.60;;;;;;5075134;28;20194;-84
2023/07/02 10:48:55;;;;;;;6.47;3.25;;;24.10;98.50;;;;;;5075218;28;20222;-83
2023/07/02 10:51:22;;;;;;;6.65;3.95;;;24.30;98.90;;;;;;5075244;28;20210;-84
2023/07/02 10:53:58;;;;;;;12.90;4.68;;;24.40;97.50;;;;;;5074806;28;20701;-84
2023/07/02 10:56:25;;;;;;;7.10;4.47;;;24.40;98.30;;;;;;5075126;28;20193;-84
2023/07/02 10:58:53;;;;;;;6.25;3.45;;;24.20;96.80;;;;;;5074517;28;20222;-83
2023/07/02 11:01:25;;;;;;;7.50;4.30;;;24.30;97.70;;;;;;5074944;28;20213;-83
2023/07/02 11:03:59;;;;;;;5.55;3.63;;;24.50;97.70;;;;;;5074668;28;20198;-83
2023/07/02 11:06:26;;;;;;;9.30;4.25;;;24.70;96.40;;;;;;5075000;28;20221;-83
2023/07/02 11:08:54;;;;;;;7.28;4.13;;;24.80;96.10;;;;;;5074538;28;20229;-84
2023/07/02 11:11:22;;;;;;;6.35;4.07;;;24.90;95.60;;;;;;5074491;28;20696;-85
2023/07/02 11:13:50;;;;;;;9.90;4.68;;;24.80;94.40;;;;;;5074715;28;20716;-84
2023/07/02 11:16:25;;;;;;;9.77;4.50;;;24.60;94.80;;;;;;5074969;28;20206;-83
2023/07/02 11:18:52;;;;;;;6.22;3.20;;;24.30;95.40;;;;;;5074643;28;20275;-83
2023/07/02 11:21:19;;;;;;;5.93;3.90;;;24.10;94.50;;;;;;5074590;28;20206;-83
2023/07/02 11:23:46;;;;;;;9.70;4.10;;;24.00;95.70;;;;;;5074626;28;20194;-83
2023/07/02 11:26:13;;;;;;;7.60;4.80;;;24.00;95.40;;;;;;5074219;28;20575;-83
2023/07/02 11:28:51;;;;;;;7.10;3.40;;;24.10;95.70;;;;;;5074064;28;20253;-83
2023/07/02 11:31:28;;;;;;;7.60;3.10;;;24.20;94.80;;;;;;5074181;28;20193;-83
2023/07/02 11:33:55;;;;;;;5.75;3.28;;;24.40;94.70;;;;;;5074341;28;20618;-84
2023/07/02 11:36:24;;;;;;;8.77;4.32;;;24.50;94.40;;;;;;5074006;28;20579;-83
2023/07/02 11:38:51;;;;;;;6.78;3.67;;;24.60;93.60;;;;;;5074219;28;20307;-83
2023/07/02 11:41:18;;;;;;;9.85;4.35;;;24.70;93.60;;;;;;5074203;28;20205;-83
2023/07/02 11:43:45;;;;;;;8.68;4.57;;;24.70;93.70;;;;;;5074217;28;20251;-84
2023/07/02 11:46:12;;;;;;;8.07;4.00;;;24.70;92.00;;;;;;5074131;28;20210;-84
2023/07/02 11:48:40;;;;;;;8.57;3.45;;;24.60;92.50;;;;;;5073724;28;20735;-83
2023/07/02 11:51:07;;;;;;;8.75;3.97;;;24.50;92.70;;;;;;5073795;28;20534;-83
2023/07/02 11:53:33;;;;;;;8.17;3.30;;;24.60;92.40;;;;;;5074200;28;20226;-84
2023/07/02 11:56:01;;;;;;;5.43;3.83;;;24.60;92.80;;;;;;5073957;28;20214;-84
2023/07/02 11:58:28;;;;;;;6.45;3.50;;;24.50;92.60;;;;;;5074172;28;20221;-84
2023/07/02 12:00:55;;;;;;;8.43;4.00;;;24.60;93.30;;;;;;5073936;28;20592;-85
2023/07/02 12:03:22;;;;;;;8.73;4.13;;;24.60;92.50;;;;;;5073901;28;20210;-84
2023/07/02 12:05:50;;;;;;;6.03;3.10;;;24.40;91.90;;;;;;5073897;28;20189;-84
2023/07/02 12:08:16;;;;;;;7.22;4.05;;;24.30;92.00;;;;;;5073457;28;20586;-84
2023/07/02 12:10:43;;;;;;;5.95;3.13;;;24.40;92.50;;;;;;5073854;28;20194;-83
2023/07/02 12:13:10;;;;;;;7.78;3.97;;;24.30;91.40;;;;;;5073395;28;20233;-84
2023/07/02 12:15:36;;;;;;;10.47;3.90;;;24.30;92.30;;;;;;5073724;28;20209;-83
2023/07/02 12:18:03;;;;;;;7.13;3.63;;;24.30;91.60;;;;;;5073544;28;20222;-83
2023/07/02 12:20:30;;;;;;;5.65;3.53;;;24.10;90.60;;;;;;5073599;28;20666;-83
2023/07/02 12:22:58;;;;;;;7.07;3.67;;;24.00;90.50;;;;;;5073682;28;20273;-83
2023/07/02 12:25:25;;;;;;;9.88;4.00;;;24.00;92.00;;;;;;5073556;28;20209;-84
2023/07/02 12:27:53;;;;;;;6.73;4.13;;;24.10;91.40;;;;;;5073228;28;20604;-83
2023/07/02 12:30:20;;;;;;;5.57;3.63;;;24.10;90.90;;;;;;5073683;28;20280;-83
2023/07/02 12:32:47;;;;;;;9.10;4.33;;;24.10;91.50;;;;;;5073371;28;20224;-84
2023/07/02 12:35:14;;;;;;;5.57;3.43;;;24.10;91.70;;;;;;5073199;28;20562;-84
2023/07/02 12:37:45;;;;;;;8.38;4.05;;;24.20;89.80;;;;;;5073111;28;20677;-83
2023/07/02 12:40:14;;;;;;;6.05;3.88;;;24.20;90.40;;;;;;5073455;28;20240;-84
2023/07/02 12:42:41;;;;;;;4.38;3.00;;;24.20;90.20;;;;;;5073419;28;20206;-84
2023/07/02 12:45:09;;;;;;;4.00;2.43;;;24.10;90.30;;;;;;5073394;28;20225;-83
2023/07/02 12:47:36;;;;;;;8.50;3.38;;;24.10;88.80;;;;;;5073363;28;20593;-84